sensor_id;sensor_type;location;lat;lon;timestamp;temperature;humidity
27848;DHT22;15212;48.830;8.730;2023-06-14T00:01:02;15.00;90.40
27848;DHT22;15212;48.830;8.730;2023-06-14T00:03:32;15.00;90.90
27848;DHT22;15212;48.830;8.730;2023-06-14T00:06:01;14.90;91.20
27848;DHT22;15212;48.830;8.730;2023-06-14T00:08:29;14.90;91.10
27848;DHT22;15212;48.830;8.730;2023-06-14T00:10:57;14.90;90.20
27848;DHT22;15212;48.830;8.730;2023-06-14T00:13:26;14.90;90.90
27848;DHT22;15212;48.830;8.730;2023-06-14T00:15:54;14.80;91.00
27848;DHT22;15212;48.830;8.730;2023-06-14T00:18:23;14.80;91.20
27848;DHT22;15212;48.830;8.730;2023-06-14T00:20:53;14.80;90.60
27848;DHT22;15212;48.830;8.730;2023-06-14T00:23:21;14.80;90.60
27848;DHT22;15212;48.830;8.730;2023-06-14T00:25:50;14.70;91.50
27848;DHT22;15212;48.830;8.730;2023-06-14T00:28:18;14.70;91.60
27848;DHT22;15212;48.830;8.730;2023-06-14T00:30:47;14.60;91.70
27848;DHT22;15212;48.830;8.730;2023-06-14T00:33:15;14.50;91.50
27848;DHT22;15212;48.830;8.730;2023-06-14T00:35:43;14.50;91.80
27848;DHT22;15212;48.830;8.730;2023-06-14T00:38:13;14.50;91.50
27848;DHT22;15212;48.830;8.730;2023-06-14T00:40:42;14.50;91.90
27848;DHT22;15212;48.830;8.730;2023-06-14T00:43:10;14.50;91.80
27848;DHT22;15212;48.830;8.730;2023-06-14T00:45:39;14.50;91.60
27848;DHT22;15212;48.830;8.730;2023-06-14T00:48:07;14.50;91.50
27848;DHT22;15212;48.830;8.730;2023-06-14T00:50:36;14.50;92.00
27848;DHT22;15212;48.830;8.730;2023-06-14T00:53:04;14.50;92.40
27848;DHT22;15212;48.830;8.730;2023-06-14T00:55:33;14.40;92.90
27848;DHT22;15212;48.830;8.730;2023-06-14T00:58:01;14.40;92.90
27848;DHT22;15212;48.830;8.730;2023-06-14T01:00:30;14.40;92.80
27848;DHT22;15212;48.830;8.730;2023-06-14T01:02:58;14.30;93.70
27848;DHT22;15212;48.830;8.730;2023-06-14T01:05:29;14.30;93.70
27848;DHT22;15212;48.830;8.730;2023-06-14T01:08:31;14.30;93.90
27848;DHT22;15212;48.830;8.730;2023-06-14T01:11:27;14.20;93.90
27848;DHT22;15212;48.830;8.730;2023-06-14T01:13:57;14.20;93.70
27848;DHT22;15212;48.830;8.730;2023-06-14T01:16:27;14.20;93.90
27848;DHT22;15212;48.830;8.730;2023-06-14T01:18:58;14.10;94.40
27848;DHT22;15212;48.830;8.730;2023-06-14T01:21:28;14.00;94.00
27848;DHT22;15212;48.830;8.730;2023-06-14T01:23:57;14.00;93.60
27848;DHT22;15212;48.830;8.730;2023-06-14T01:26:26;14.10;93.70
27848;DHT22;15212;48.830;8.730;2023-06-14T01:28:55;14.20;93.60
27848;DHT22;15212;48.830;8.730;2023-06-14T01:31:25;14.30;93.70
27848;DHT22;15212;48.830;8.730;2023-06-14T01:33:54;14.40;93.80
27848;DHT22;15212;48.830;8.730;2023-06-14T01:36:23;14.40;93.40
27848;DHT22;15212;48.830;8.730;2023-06-14T01:38:53;14.40;93.70
27848;DHT22;15212;48.830;8.730;2023-06-14T01:41:22;14.30;93.80
27848;DHT22;15212;48.830;8.730;2023-06-14T01:43:52;14.30;93.60
27848;DHT22;15212;48.830;8.730;2023-06-14T01:46:21;14.20;94.20
27848;DHT22;15212;48.830;8.730;2023-06-14T01:48:50;14.00;93.90
27848;DHT22;15212;48.830;8.730;2023-06-14T01:51:18;14.00;94.20
27848;DHT22;15212;48.830;8.730;2023-06-14T01:53:47;14.00;94.40
27848;DHT22;15212;48.830;8.730;2023-06-14T01:56:15;13.90;94.40
27848;DHT22;15212;48.830;8.730;2023-06-14T01:58:44;13.80;95.00
27848;DHT22;15212;48.830;8.730;2023-06-14T02:01:12;13.80;95.70
27848;DHT22;15212;48.830;8.730;2023-06-14T02:03:42;13.60;96.10
27848;DHT22;15212;48.830;8.730;2023-06-14T02:06:11;13.50;95.90
27848;DHT22;15212;48.830;8.730;2023-06-14T02:08:40;13.40;96.30
27848;DHT22;15212;48.830;8.730;2023-06-14T02:11:09;13.30;96.90
27848;DHT22;15212;48.830;8.730;2023-06-14T02:13:37;13.20;97.00
27848;DHT22;15212;48.830;8.730;2023-06-14T02:16:06;13.00;97.60
27848;DHT22;15212;48.830;8.730;2023-06-14T02:18:34;12.90;97.80
27848;DHT22;15212;48.830;8.730;2023-06-14T02:21:03;12.90;98.00
27848;DHT22;15212;48.830;8.730;2023-06-14T02:23:31;12.80;98.40
27848;DHT22;15212;48.830;8.730;2023-06-14T02:26:00;12.70;98.60
27848;DHT22;15212;48.830;8.730;2023-06-14T02:28:29;12.70;98.80
27848;DHT22;15212;48.830;8.730;2023-06-14T02:30:57;12.70;98.80
27848;DHT22;15212;48.830;8.730;2023-06-14T02:33:27;12.70;98.80
27848;DHT22;15212;48.830;8.730;2023-06-14T02:35:55;12.70;98.80
27848;DHT22;15212;48.830;8.730;2023-06-14T02:38:23;12.70;99.00
27848;DHT22;15212;48.830;8.730;2023-06-14T02:40:53;12.70;99.20
27848;DHT22;15212;48.830;8.730;2023-06-14T02:43:21;12.60;99.60
27848;DHT22;15212;48.830;8.730;2023-06-14T02:45:49;12.60;99.70
27848;DHT22;15212;48.830;8.730;2023-06-14T02:48:18;12.60;99.90
27848;DHT22;15212;48.830;8.730;2023-06-14T02:50:47;12.50;99.90
27848;DHT22;15212;48.830;8.730;2023-06-14T02:53:15;12.40;99.90
27848;DHT22;15212;48.830;8.730;2023-06-14T02:55:44;12.40;99.90
27848;DHT22;15212;48.830;8.730;2023-06-14T02:58:13;12.30;99.90
27848;DHT22;15212;48.830;8.730;2023-06-14T03:00:43;12.30;99.90
27848;DHT22;15212;48.830;8.730;2023-06-14T03:03:11;12.30;99.90
27848;DHT22;15212;48.830;8.730;2023-06-14T03:05:45;12.30;99.90
27848;DHT22;15212;48.830;8.730;2023-06-14T03:08:16;12.30;99.90
27848;DHT22;15212;48.830;8.730;2023-06-14T03:10:49;12.30;99.90
27848;DHT22;15212;48.830;8.730;2023-06-14T03:13:17;12.30;99.90
27848;DHT22;15212;48.830;8.730;2023-06-14T03:15:49;12.30;99.90
27848;DHT22;15212;48.830;8.730;2023-06-14T03:18:18;12.30;99.90
27848;DHT22;15212;48.830;8.730;2023-06-14T03:20:48;12.30;99.90
27848;DHT22;15212;48.830;8.730;2023-06-14T03:23:17;12.40;99.90
27848;DHT22;15212;48.830;8.730;2023-06-14T03:25:46;12.40;99.90
27848;DHT22;15212;48.830;8.730;2023-06-14T03:28:14;12.50;99.90
27848;DHT22;15212;48.830;8.730;2023-06-14T03:30:43;12.50;99.90
27848;DHT22;15212;48.830;8.730;2023-06-14T03:33:12;12.50;99.90
27848;DHT22;15212;48.830;8.730;2023-06-14T03:35:40;12.50;99.90
27848;DHT22;15212;48.830;8.730;2023-06-14T03:38:08;12.50;99.90
27848;DHT22;15212;48.830;8.730;2023-06-14T03:40:37;12.50;99.90
27848;DHT22;15212;48.830;8.730;2023-06-14T03:43:05;12.50;99.90
27848;DHT22;15212;48.830;8.730;2023-06-14T03:45:33;12.40;99.90
27848;DHT22;15212;48.830;8.730;2023-06-14T03:48:02;12.50;99.90
27848;DHT22;15212;48.830;8.730;2023-06-14T03:50:33;12.40;99.90
27848;DHT22;15212;48.830;8.730;2023-06-14T03:53:03;12.40;99.90
27848;DHT22;15212;48.830;8.730;2023-06-14T03:55:32;12.40;99.90
27848;DHT22;15212;48.830;8.730;2023-06-14T03:58:00;12.30;99.90
27848;DHT22;15212;48.830;8.730;2023-06-14T04:00:28;12.30;99.90
27848;DHT22;15212;48.830;8.730;2023-06-14T04:02:58;12.30;99.90
27848;DHT22;15212;48.830;8.730;2023-06-14T04:05:27;12.30;99.90
27848;DHT22;15212;48.830;8.730;2023-06-14T04:07:56;12.40;99.90
27848;DHT22;15212;48.830;8.730;2023-06-14T04:10:26;12.40;99.90
27848;DHT22;15212;48.830;8.730;2023-06-14T04:12:54;12.50;99.90
27848;DHT22;15212;48.830;8.730;2023-06-14T04:15:22;12.50;99.90
27848;DHT22;15212;48.830;8.730;2023-06-14T04:17:51;12.60;99.90
27848;DHT22;15212;48.830;8.730;2023-06-14T04:20:21;12.70;99.90
27848;DHT22;15212;48.830;8.730;2023-06-14T04:22:52;12.80;99.90
27848;DHT22;15212;48.830;8.730;2023-06-14T04:25:20;12.80;99.90
27848;DHT22;15212;48.830;8.730;2023-06-14T04:27:49;12.90;99.90
27848;DHT22;15212;48.830;8.730;2023-06-14T04:30:18;13.00;99.90
27848;DHT22;15212;48.830;8.730;2023-06-14T04:32:47;13.10;99.90
27848;DHT22;15212;48.830;8.730;2023-06-14T04:35:16;13.20;99.90
27848;DHT22;15212;48.830;8.730;2023-06-14T04:37:44;13.40;99.90
27848;DHT22;15212;48.830;8.730;2023-06-14T04:40:13;13.70;99.50
27848;DHT22;15212;48.830;8.730;2023-06-14T04:42:41;13.80;99.50
27848;DHT22;15212;48.830;8.730;2023-06-14T04:45:11;14.00;98.70
27848;DHT22;15212;48.830;8.730;2023-06-14T04:47:41;14.20;98.90
27848;DHT22;15212;48.830;8.730;2023-06-14T04:50:10;14.30;98.50
27848;DHT22;15212;48.830;8.730;2023-06-14T04:52:39;14.50;98.30
27848;DHT22;15212;48.830;8.730;2023-06-14T04:55:08;14.60;98.30
27848;DHT22;15212;48.830;8.730;2023-06-14T04:57:37;14.70;98.10
27848;DHT22;15212;48.830;8.730;2023-06-14T05:00:07;14.80;97.90
27848;DHT22;15212;48.830;8.730;2023-06-14T05:02:38;14.90;97.60
27848;DHT22;15212;48.830;8.730;2023-06-14T05:05:07;15.00;97.80
27848;DHT22;15212;48.830;8.730;2023-06-14T05:07:35;15.10;97.00
27848;DHT22;15212;48.830;8.730;2023-06-14T05:10:04;15.30;96.80
27848;DHT22;15212;48.830;8.730;2023-06-14T05:12:33;15.40;96.40
27848;DHT22;15212;48.830;8.730;2023-06-14T05:15:01;15.50;97.00
27848;DHT22;15212;48.830;8.730;2023-06-14T05:17:31;15.70;96.90
27848;DHT22;15212;48.830;8.730;2023-06-14T05:19:59;15.80;96.10
27848;DHT22;15212;48.830;8.730;2023-06-14T05:22:28;16.00;95.90
27848;DHT22;15212;48.830;8.730;2023-06-14T05:24:56;16.10;96.10
27848;DHT22;15212;48.830;8.730;2023-06-14T05:27:25;16.20;95.60
27848;DHT22;15212;48.830;8.730;2023-06-14T05:29:53;16.20;96.20
27848;DHT22;15212;48.830;8.730;2023-06-14T05:32:23;16.30;96.10
27848;DHT22;15212;48.830;8.730;2023-06-14T05:34:51;16.40;95.80
27848;DHT22;15212;48.830;8.730;2023-06-14T05:37:20;16.50;96.00
27848;DHT22;15212;48.830;8.730;2023-06-14T05:39:48;16.50;94.70
27848;DHT22;15212;48.830;8.730;2023-06-14T05:42:16;16.60;96.00
27848;DHT22;15212;48.830;8.730;2023-06-14T05:44:45;16.60;95.70
27848;DHT22;15212;48.830;8.730;2023-06-14T05:47:13;16.60;95.50
27848;DHT22;15212;48.830;8.730;2023-06-14T05:49:42;16.70;95.60
27848;DHT22;15212;48.830;8.730;2023-06-14T05:52:10;16.90;95.30
27848;DHT22;15212;48.830;8.730;2023-06-14T05:54:39;17.20;95.30
27848;DHT22;15212;48.830;8.730;2023-06-14T05:57:07;17.80;93.80
27848;DHT22;15212;48.830;8.730;2023-06-14T05:59:37;18.50;93.50
27848;DHT22;15212;48.830;8.730;2023-06-14T06:02:05;19.30;92.40
27848;DHT22;15212;48.830;8.730;2023-06-14T06:04:34;20.10;92.30
27848;DHT22;15212;48.830;8.730;2023-06-14T06:07:02;21.10;91.00
27848;DHT22;15212;48.830;8.730;2023-06-14T06:09:32;22.40;90.20
27848;DHT22;15212;48.830;8.730;2023-06-14T06:12:00;23.50;87.20
27848;DHT22;15212;48.830;8.730;2023-06-14T06:14:29;24.40;82.90
27848;DHT22;15212;48.830;8.730;2023-06-14T06:16:57;25.20;81.50
27848;DHT22;15212;48.830;8.730;2023-06-14T06:19:25;25.80;78.40
27848;DHT22;15212;48.830;8.730;2023-06-14T06:21:54;26.20;78.60
27848;DHT22;15212;48.830;8.730;2023-06-14T06:24:22;26.80;76.90
27848;DHT22;15212;48.830;8.730;2023-06-14T06:26:50;27.10;76.40
27848;DHT22;15212;48.830;8.730;2023-06-14T06:29:19;27.40;75.90
27848;DHT22;15212;48.830;8.730;2023-06-14T06:31:48;27.70;74.80
27848;DHT22;15212;48.830;8.730;2023-06-14T06:34:16;28.30;73.50
27848;DHT22;15212;48.830;8.730;2023-06-14T06:36:45;28.50;71.10
27848;DHT22;15212;48.830;8.730;2023-06-14T06:39:13;28.80;71.20
27848;DHT22;15212;48.830;8.730;2023-06-14T06:41:41;29.20;71.70
27848;DHT22;15212;48.830;8.730;2023-06-14T06:44:10;29.40;68.20
27848;DHT22;15212;48.830;8.730;2023-06-14T06:46:39;29.30;68.20
27848;DHT22;15212;48.830;8.730;2023-06-14T06:49:09;29.40;69.40
27848;DHT22;15212;48.830;8.730;2023-06-14T06:51:41;29.30;68.20
27848;DHT22;15212;48.830;8.730;2023-06-14T06:54:12;29.20;69.80
27848;DHT22;15212;48.830;8.730;2023-06-14T06:56:40;29.00;67.10
27848;DHT22;15212;48.830;8.730;2023-06-14T06:59:09;29.10;67.40
27848;DHT22;15212;48.830;8.730;2023-06-14T07:01:39;29.30;68.00
27848;DHT22;15212;48.830;8.730;2023-06-14T07:04:07;29.70;65.40
27848;DHT22;15212;48.830;8.730;2023-06-14T07:06:36;30.00;64.90
27848;DHT22;15212;48.830;8.730;2023-06-14T07:09:04;29.80;66.90
27848;DHT22;15212;48.830;8.730;2023-06-14T07:11:34;29.60;66.80
27848;DHT22;15212;48.830;8.730;2023-06-14T07:14:03;29.40;67.20
27848;DHT22;15212;48.830;8.730;2023-06-14T07:16:31;29.20;69.40
27848;DHT22;15212;48.830;8.730;2023-06-14T07:19:01;29.40;67.80
27848;DHT22;15212;48.830;8.730;2023-06-14T07:21:30;29.70;66.40
27848;DHT22;15212;48.830;8.730;2023-06-14T07:23:58;29.80;67.20
27848;DHT22;15212;48.830;8.730;2023-06-14T07:26:27;29.50;67.70
27848;DHT22;15212;48.830;8.730;2023-06-14T07:28:55;29.40;68.70
27848;DHT22;15212;48.830;8.730;2023-06-14T07:31:23;29.50;67.20
27848;DHT22;15212;48.830;8.730;2023-06-14T07:33:52;29.60;67.00
27848;DHT22;15212;48.830;8.730;2023-06-14T07:36:22;29.60;67.60
27848;DHT22;15212;48.830;8.730;2023-06-14T07:38:50;29.70;68.50
27848;DHT22;15212;48.830;8.730;2023-06-14T07:41:19;29.40;69.10
27848;DHT22;15212;48.830;8.730;2023-06-14T07:43:47;29.60;68.40
27848;DHT22;15212;48.830;8.730;2023-06-14T07:46:15;29.40;67.60
27848;DHT22;15212;48.830;8.730;2023-06-14T07:48:44;29.30;70.10
27848;DHT22;15212;48.830;8.730;2023-06-14T07:51:12;29.10;67.90
27848;DHT22;15212;48.830;8.730;2023-06-14T07:53:41;28.70;68.50
27848;DHT22;15212;48.830;8.730;2023-06-14T07:56:09;28.30;69.00
27848;DHT22;15212;48.830;8.730;2023-06-14T07:58:37;27.90;70.30
27848;DHT22;15212;48.830;8.730;2023-06-14T08:01:06;27.30;71.00
27848;DHT22;15212;48.830;8.730;2023-06-14T08:03:34;26.80;71.10
27848;DHT22;15212;48.830;8.730;2023-06-14T08:06:03;26.40;71.60
27848;DHT22;15212;48.830;8.730;2023-06-14T08:08:32;25.70;72.20
27848;DHT22;15212;48.830;8.730;2023-06-14T08:11:01;25.20;73.90
27848;DHT22;15212;48.830;8.730;2023-06-14T08:13:29;24.80;73.50
27848;DHT22;15212;48.830;8.730;2023-06-14T08:15:57;24.40;74.80
27848;DHT22;15212;48.830;8.730;2023-06-14T08:18:27;24.10;77.80
27848;DHT22;15212;48.830;8.730;2023-06-14T08:20:56;24.10;77.80
27848;DHT22;15212;48.830;8.730;2023-06-14T08:23:25;23.80;77.60
27848;DHT22;15212;48.830;8.730;2023-06-14T08:25:53;23.80;77.40
27848;DHT22;15212;48.830;8.730;2023-06-14T08:28:24;23.70;77.40
27848;DHT22;15212;48.830;8.730;2023-06-14T08:30:52;23.50;77.70
27848;DHT22;15212;48.830;8.730;2023-06-14T08:33:21;23.40;80.80
27848;DHT22;15212;48.830;8.730;2023-06-14T08:35:49;23.40;78.60
27848;DHT22;15212;48.830;8.730;2023-06-14T08:38:17;23.50;78.10
27848;DHT22;15212;48.830;8.730;2023-06-14T08:40:47;23.50;80.90
27848;DHT22;15212;48.830;8.730;2023-06-14T08:43:18;23.70;79.10
27848;DHT22;15212;48.830;8.730;2023-06-14T08:45:49;23.70;78.70
27848;DHT22;15212;48.830;8.730;2023-06-14T08:48:22;23.60;79.30
27848;DHT22;15212;48.830;8.730;2023-06-14T08:50:54;23.70;79.80
27848;DHT22;15212;48.830;8.730;2023-06-14T08:53:32;23.70;79.80
27848;DHT22;15212;48.830;8.730;2023-06-14T08:56:01;23.60;78.80
27848;DHT22;15212;48.830;8.730;2023-06-14T08:58:31;23.70;80.10
27848;DHT22;15212;48.830;8.730;2023-06-14T09:01:03;23.60;82.30
27848;DHT22;15212;48.830;8.730;2023-06-14T09:03:34;23.40;80.80
27848;DHT22;15212;48.830;8.730;2023-06-14T09:06:04;23.50;80.10
27848;DHT22;15212;48.830;8.730;2023-06-14T09:08:34;23.50;79.50
27848;DHT22;15212;48.830;8.730;2023-06-14T09:11:03;23.20;81.30
27848;DHT22;15212;48.830;8.730;2023-06-14T09:13:31;23.30;83.00
27848;DHT22;15212;48.830;8.730;2023-06-14T09:16:00;23.40;82.90
27848;DHT22;15212;48.830;8.730;2023-06-14T09:18:39;23.40;79.20
27848;DHT22;15212;48.830;8.730;2023-06-14T09:21:10;23.40;80.60
27848;DHT22;15212;48.830;8.730;2023-06-14T09:23:40;23.40;77.60
27848;DHT22;15212;48.830;8.730;2023-06-14T09:26:13;23.40;79.70
27848;DHT22;15212;48.830;8.730;2023-06-14T09:28:47;23.70;79.60
27848;DHT22;15212;48.830;8.730;2023-06-14T09:31:17;24.00;78.60
27848;DHT22;15212;48.830;8.730;2023-06-14T09:33:48;23.80;77.60
27848;DHT22;15212;48.830;8.730;2023-06-14T09:36:20;23.80;77.20
27848;DHT22;15212;48.830;8.730;2023-06-14T09:39:01;23.80;76.20
27848;DHT22;15212;48.830;8.730;2023-06-14T09:41:37;23.90;77.00
27848;DHT22;15212;48.830;8.730;2023-06-14T09:44:07;24.00;77.00
27848;DHT22;15212;48.830;8.730;2023-06-14T09:46:37;24.00;80.20
27848;DHT22;15212;48.830;8.730;2023-06-14T09:49:06;23.90;76.70
27848;DHT22;15212;48.830;8.730;2023-06-14T09:51:42;23.80;77.50
27848;DHT22;15212;48.830;8.730;2023-06-14T09:54:20;23.70;77.60
27848;DHT22;15212;48.830;8.730;2023-06-14T09:56:46;23.80;78.60
27848;DHT22;15212;48.830;8.730;2023-06-14T09:59:21;23.80;78.10
27848;DHT22;15212;48.830;8.730;2023-06-14T10:01:55;23.90;78.10
27848;DHT22;15212;48.830;8.730;2023-06-14T10:04:28;23.90;75.70
27848;DHT22;15212;48.830;8.730;2023-06-14T10:06:58;23.80;75.80
27848;DHT22;15212;48.830;8.730;2023-06-14T10:09:29;23.70;77.20
27848;DHT22;15212;48.830;8.730;2023-06-14T10:11:58;23.80;77.80
27848;DHT22;15212;48.830;8.730;2023-06-14T10:14:27;23.70;74.80
27848;DHT22;15212;48.830;8.730;2023-06-14T10:17:10;23.70;75.50
27848;DHT22;15212;48.830;8.730;2023-06-14T10:19:46;23.80;79.00
27848;DHT22;15212;48.830;8.730;2023-06-14T10:22:34;23.90;77.10
27848;DHT22;15212;48.830;8.730;2023-06-14T10:25:08;24.00;77.50
27848;DHT22;15212;48.830;8.730;2023-06-14T10:27:39;24.30;76.20
27848;DHT22;15212;48.830;8.730;2023-06-14T10:30:14;24.40;75.30
27848;DHT22;15212;48.830;8.730;2023-06-14T10:33:04;24.30;74.50
27848;DHT22;15212;48.830;8.730;2023-06-14T10:35:34;24.40;77.90
27848;DHT22;15212;48.830;8.730;2023-06-14T10:38:12;24.40;78.10
27848;DHT22;15212;48.830;8.730;2023-06-14T10:40:41;24.50;75.50
27848;DHT22;15212;48.830;8.730;2023-06-14T10:43:23;24.40;74.50
27848;DHT22;15212;48.830;8.730;2023-06-14T10:46:15;24.50;74.10
27848;DHT22;15212;48.830;8.730;2023-06-14T10:48:48;24.30;73.80
27848;DHT22;15212;48.830;8.730;2023-06-14T10:51:19;24.10;75.20
27848;DHT22;15212;48.830;8.730;2023-06-14T10:53:48;24.00;75.70
27848;DHT22;15212;48.830;8.730;2023-06-14T10:56:27;23.60;75.10
27848;DHT22;15212;48.830;8.730;2023-06-14T10:59:00;23.40;74.20
27848;DHT22;15212;48.830;8.730;2023-06-14T11:01:40;23.20;76.60
27848;DHT22;15212;48.830;8.730;2023-06-14T11:04:11;23.20;75.70
27848;DHT22;15212;48.830;8.730;2023-06-14T11:06:45;23.20;75.40
27848;DHT22;15212;48.830;8.730;2023-06-14T11:09:27;23.20;75.70
27848;DHT22;15212;48.830;8.730;2023-06-14T11:12:09;23.30;75.40
27848;DHT22;15212;48.830;8.730;2023-06-14T11:14:39;23.50;79.10
27848;DHT22;15212;48.830;8.730;2023-06-14T11:17:07;23.70;75.20
27848;DHT22;15212;48.830;8.730;2023-06-14T11:19:36;23.90;74.60
27848;DHT22;15212;48.830;8.730;2023-06-14T11:22:04;23.70;74.80
27848;DHT22;15212;48.830;8.730;2023-06-14T11:24:33;23.50;75.30
27848;DHT22;15212;48.830;8.730;2023-06-14T11:27:01;23.30;73.90
27848;DHT22;15212;48.830;8.730;2023-06-14T11:29:30;23.30;75.40
27848;DHT22;15212;48.830;8.730;2023-06-14T11:31:58;23.30;74.10
27848;DHT22;15212;48.830;8.730;2023-06-14T11:34:27;23.40;77.30
27848;DHT22;15212;48.830;8.730;2023-06-14T11:36:55;23.60;74.40
27848;DHT22;15212;48.830;8.730;2023-06-14T11:39:26;23.70;73.70
27848;DHT22;15212;48.830;8.730;2023-06-14T11:41:55;23.60;75.40
27848;DHT22;15212;48.830;8.730;2023-06-14T11:44:25;23.40;75.40
27848;DHT22;15212;48.830;8.730;2023-06-14T11:46:53;23.30;75.20
27848;DHT22;15212;48.830;8.730;2023-06-14T11:49:24;23.50;74.40
27848;DHT22;15212;48.830;8.730;2023-06-14T11:51:54;23.60;74.80
27848;DHT22;15212;48.830;8.730;2023-06-14T11:54:22;23.60;74.90
27848;DHT22;15212;48.830;8.730;2023-06-14T11:56:50;23.70;74.50
27848;DHT22;15212;48.830;8.730;2023-06-14T11:59:20;23.50;73.60
27848;DHT22;15212;48.830;8.730;2023-06-14T12:01:49;23.40;74.00
27848;DHT22;15212;48.830;8.730;2023-06-14T12:04:26;23.30;74.50
27848;DHT22;15212;48.830;8.730;2023-06-14T12:06:54;23.40;75.00
27848;DHT22;15212;48.830;8.730;2023-06-14T12:09:24;23.50;75.80
27848;DHT22;15212;48.830;8.730;2023-06-14T12:11:59;23.60;75.30
27848;DHT22;15212;48.830;8.730;2023-06-14T12:14:31;23.70;73.80
27848;DHT22;15212;48.830;8.730;2023-06-14T12:17:07;23.80;78.70
27848;DHT22;15212;48.830;8.730;2023-06-14T12:19:43;24.00;73.10
27848;DHT22;15212;48.830;8.730;2023-06-14T12:22:13;24.00;73.30
27848;DHT22;15212;48.830;8.730;2023-06-14T12:24:45;24.00;74.60
27848;DHT22;15212;48.830;8.730;2023-06-14T12:27:14;24.10;72.50
27848;DHT22;15212;48.830;8.730;2023-06-14T12:29:44;24.10;73.20
27848;DHT22;15212;48.830;8.730;2023-06-14T12:32:13;24.10;71.90
27848;DHT22;15212;48.830;8.730;2023-06-14T12:34:41;24.10;73.20
27848;DHT22;15212;48.830;8.730;2023-06-14T12:37:10;24.00;72.80
27848;DHT22;15212;48.830;8.730;2023-06-14T12:39:39;23.90;72.30
27848;DHT22;15212;48.830;8.730;2023-06-14T12:42:07;23.60;72.90
27848;DHT22;15212;48.830;8.730;2023-06-14T12:44:36;23.30;73.00
27848;DHT22;15212;48.830;8.730;2023-06-14T12:47:11;23.20;73.60
27848;DHT22;15212;48.830;8.730;2023-06-14T12:49:36;23.40;73.10
27848;DHT22;15212;48.830;8.730;2023-06-14T12:52:04;23.60;72.50
27848;DHT22;15212;48.830;8.730;2023-06-14T12:54:33;23.70;74.00
27848;DHT22;15212;48.830;8.730;2023-06-14T12:57:01;23.80;72.30
27848;DHT22;15212;48.830;8.730;2023-06-14T12:59:30;24.10;73.30
27848;DHT22;15212;48.830;8.730;2023-06-14T13:02:16;24.30;73.70
27848;DHT22;15212;48.830;8.730;2023-06-14T13:04:47;24.30;75.70
27848;DHT22;15212;48.830;8.730;2023-06-14T13:07:15;24.30;75.40
27848;DHT22;15212;48.830;8.730;2023-06-14T13:09:44;24.00;74.50
27848;DHT22;15212;48.830;8.730;2023-06-14T13:12:12;23.90;74.50
27848;DHT22;15212;48.830;8.730;2023-06-14T13:14:40;23.80;76.00
27848;DHT22;15212;48.830;8.730;2023-06-14T13:17:09;23.90;74.40
27848;DHT22;15212;48.830;8.730;2023-06-14T13:19:38;23.90;73.70
27848;DHT22;15212;48.830;8.730;2023-06-14T13:22:07;23.80;73.30
27848;DHT22;15212;48.830;8.730;2023-06-14T13:24:36;23.80;72.10
27848;DHT22;15212;48.830;8.730;2023-06-14T13:27:04;24.00;71.10
27848;DHT22;15212;48.830;8.730;2023-06-14T13:29:33;24.10;73.00
27848;DHT22;15212;48.830;8.730;2023-06-14T13:32:03;24.20;73.40
27848;DHT22;15212;48.830;8.730;2023-06-14T13:34:31;24.30;74.50
27848;DHT22;15212;48.830;8.730;2023-06-14T13:37:00;24.30;75.60
27848;DHT22;15212;48.830;8.730;2023-06-14T13:39:28;24.20;74.00
27848;DHT22;15212;48.830;8.730;2023-06-14T13:41:57;24.00;73.60
27848;DHT22;15212;48.830;8.730;2023-06-14T13:44:25;23.60;75.60
27848;DHT22;15212;48.830;8.730;2023-06-14T13:46:53;23.30;77.30
27848;DHT22;15212;48.830;8.730;2023-06-14T13:49:22;23.10;76.10
27848;DHT22;15212;48.830;8.730;2023-06-14T13:51:50;23.20;76.30
27848;DHT22;15212;48.830;8.730;2023-06-14T13:54:22;23.40;73.90
27848;DHT22;15212;48.830;8.730;2023-06-14T13:56:50;23.30;73.90
27848;DHT22;15212;48.830;8.730;2023-06-14T13:59:19;23.40;76.10
27848;DHT22;15212;48.830;8.730;2023-06-14T14:01:47;23.50;73.70
27848;DHT22;15212;48.830;8.730;2023-06-14T14:04:16;23.60;73.20
27848;DHT22;15212;48.830;8.730;2023-06-14T14:06:44;23.70;73.20
27848;DHT22;15212;48.830;8.730;2023-06-14T14:09:13;23.60;73.20
27848;DHT22;15212;48.830;8.730;2023-06-14T14:11:41;23.70;73.60
27848;DHT22;15212;48.830;8.730;2023-06-14T14:14:09;23.80;74.20
27848;DHT22;15212;48.830;8.730;2023-06-14T14:16:38;24.00;71.90
27848;DHT22;15212;48.830;8.730;2023-06-14T14:19:06;24.00;73.80
27848;DHT22;15212;48.830;8.730;2023-06-14T14:21:34;24.10;73.60
27848;DHT22;15212;48.830;8.730;2023-06-14T14:24:03;24.20;72.90
27848;DHT22;15212;48.830;8.730;2023-06-14T14:26:32;24.30;73.40
27848;DHT22;15212;48.830;8.730;2023-06-14T14:29:00;24.40;72.90
27848;DHT22;15212;48.830;8.730;2023-06-14T14:31:29;24.30;72.90
27848;DHT22;15212;48.830;8.730;2023-06-14T14:33:57;24.40;72.40
27848;DHT22;15212;48.830;8.730;2023-06-14T14:36:26;24.30;72.00
27848;DHT22;15212;48.830;8.730;2023-06-14T14:38:54;24.30;71.90
27848;DHT22;15212;48.830;8.730;2023-06-14T14:41:22;24.30;72.50
27848;DHT22;15212;48.830;8.730;2023-06-14T14:43:51;24.20;72.70
27848;DHT22;15212;48.830;8.730;2023-06-14T14:46:19;24.10;71.80
27848;DHT22;15212;48.830;8.730;2023-06-14T14:48:48;24.20;71.80
27848;DHT22;15212;48.830;8.730;2023-06-14T14:51:16;24.10;72.00
27848;DHT22;15212;48.830;8.730;2023-06-14T14:53:45;24.10;72.20
27848;DHT22;15212;48.830;8.730;2023-06-14T14:56:13;23.80;72.70
27848;DHT22;15212;48.830;8.730;2023-06-14T14:58:42;23.80;73.20
27848;DHT22;15212;48.830;8.730;2023-06-14T15:01:10;23.80;72.70
27848;DHT22;15212;48.830;8.730;2023-06-14T15:03:38;24.00;72.90
27848;DHT22;15212;48.830;8.730;2023-06-14T15:06:07;24.00;72.50
27848;DHT22;15212;48.830;8.730;2023-06-14T15:08:35;23.80;73.40
27848;DHT22;15212;48.830;8.730;2023-06-14T15:11:04;23.90;73.60
27848;DHT22;15212;48.830;8.730;2023-06-14T15:13:33;23.80;72.10
27848;DHT22;15212;48.830;8.730;2023-06-14T15:16:01;23.90;72.60
27848;DHT22;15212;48.830;8.730;2023-06-14T15:18:29;23.90;72.40
27848;DHT22;15212;48.830;8.730;2023-06-14T15:20:58;23.70;72.20
27848;DHT22;15212;48.830;8.730;2023-06-14T15:23:26;23.70;72.70
27848;DHT22;15212;48.830;8.730;2023-06-14T15:25:54;23.80;73.60
27848;DHT22;15212;48.830;8.730;2023-06-14T15:28:23;23.90;73.10
27848;DHT22;15212;48.830;8.730;2023-06-14T15:30:53;23.80;73.10
27848;DHT22;15212;48.830;8.730;2023-06-14T15:33:22;23.90;73.30
27848;DHT22;15212;48.830;8.730;2023-06-14T15:35:50;23.80;73.00
27848;DHT22;15212;48.830;8.730;2023-06-14T15:38:20;23.90;72.70
27848;DHT22;15212;48.830;8.730;2023-06-14T15:40:49;23.80;73.40
27848;DHT22;15212;48.830;8.730;2023-06-14T15:43:17;23.80;73.90
27848;DHT22;15212;48.830;8.730;2023-06-14T15:45:46;23.80;73.60